createdAt,value
2018-05-10T00:01:12.794Z,18.30
2018-05-10T00:03:40.280Z,18.31
2018-05-10T00:06:07.762Z,18.24
2018-05-10T00:08:35.268Z,18.22
2018-05-10T00:11:02.770Z,18.24
2018-05-10T00:13:30.281Z,18.20
2018-05-10T00:15:57.777Z,18.26
2018-05-10T00:18:25.332Z,18.21
2018-05-10T00:20:52.764Z,18.18
2018-05-10T00:23:20.246Z,18.12
2018-05-10T00:25:47.765Z,18.07
2018-05-10T00:28:15.257Z,18.00
2018-05-10T00:30:42.784Z,18.02
2018-05-10T00:33:10.247Z,17.98
2018-05-10T00:35:37.747Z,17.93
2018-05-10T00:38:05.293Z,17.89
2018-05-10T00:40:32.783Z,17.93
2018-05-10T00:43:00.255Z,17.99
2018-05-10T00:45:27.754Z,18.10
2018-05-10T00:47:55.285Z,18.15
2018-05-10T00:50:22.754Z,18.18
2018-05-10T00:52:50.241Z,18.23
2018-05-10T00:55:17.740Z,18.22
2018-05-10T00:57:45.252Z,18.23
2018-05-10T01:00:12.707Z,18.26
2018-05-10T01:02:40.203Z,18.25
2018-05-10T01:05:07.695Z,18.26
2018-05-10T01:07:35.307Z,18.25
2018-05-10T01:10:02.792Z,18.20
2018-05-10T01:12:30.324Z,18.20
2018-05-10T01:14:57.802Z,18.16
2018-05-10T01:17:25.280Z,18.16
2018-05-10T01:19:52.793Z,18.18
2018-05-10T01:22:20.267Z,18.17
2018-05-10T01:24:47.765Z,18.16
2018-05-10T01:27:15.273Z,18.17
2018-05-10T01:29:42.772Z,18.12
2018-05-10T01:32:10.328Z,18.14
2018-05-10T01:34:37.794Z,18.16
2018-05-10T01:37:05.384Z,18.16
2018-05-10T01:39:32.871Z,18.17
2018-05-10T01:42:00.349Z,18.16
2018-05-10T01:44:27.876Z,18.16
2018-05-10T01:46:55.409Z,18.16
2018-05-10T01:49:22.962Z,18.17
2018-05-10T01:51:50.423Z,18.20
2018-05-10T01:54:17.920Z,18.21
2018-05-10T01:56:45.429Z,18.22
2018-05-10T01:59:12.883Z,18.23
2018-05-10T02:01:40.440Z,18.19
2018-05-10T02:04:07.926Z,18.15
2018-05-10T02:06:35.413Z,18.13
2018-05-10T02:09:02.913Z,18.14
2018-05-10T02:11:30.426Z,18.13
2018-05-10T02:13:57.929Z,18.10
2018-05-10T02:16:25.415Z,18.10
2018-05-10T02:18:52.916Z,18.07
2018-05-10T02:21:20.383Z,18.04
2018-05-10T02:23:47.904Z,18.06
2018-05-10T02:26:15.466Z,18.07
2018-05-10T02:28:42.943Z,18.06
2018-05-10T02:31:10.396Z,18.04
2018-05-10T02:33:37.951Z,18.04
2018-05-10T02:36:05.486Z,18.01
2018-05-10T02:38:32.976Z,17.99
2018-05-10T02:41:00.572Z,17.97
2018-05-10T02:43:28.033Z,17.93
2018-05-10T02:45:55.489Z,17.89
2018-05-10T02:48:23.026Z,17.87
2018-05-10T02:50:50.497Z,17.86
2018-05-10T02:53:17.976Z,17.83
2018-05-10T02:55:45.540Z,17.79
2018-05-10T02:58:13.055Z,17.79
2018-05-10T03:00:40.549Z,17.81
2018-05-10T03:03:08.042Z,17.75
2018-05-10T03:05:35.539Z,17.77
2018-05-10T03:08:02.998Z,17.76
2018-05-10T03:10:30.454Z,17.73
2018-05-10T03:12:57.974Z,17.71
2018-05-10T03:15:25.508Z,17.72
2018-05-10T03:17:52.959Z,17.72
2018-05-10T03:20:20.496Z,17.70
2018-05-10T03:22:47.968Z,17.67
2018-05-10T03:25:15.555Z,17.65
2018-05-10T03:27:43.015Z,17.66
2018-05-10T03:30:10.480Z,17.70
2018-05-10T03:32:37.985Z,17.70
2018-05-10T03:35:05.576Z,17.72
2018-05-10T03:37:33.068Z,17.74
2018-05-10T03:40:00.792Z,17.76
2018-05-10T03:42:28.323Z,17.78
2018-05-10T03:44:55.786Z,17.76
2018-05-10T03:47:23.281Z,17.71
2018-05-10T03:49:50.746Z,17.68
2018-05-10T03:52:18.296Z,17.70
2018-05-10T03:54:45.759Z,17.71
2018-05-10T03:57:13.221Z,17.68
2018-05-10T03:59:40.696Z,17.67
2018-05-10T04:02:08.183Z,17.65
2018-05-10T04:04:47.431Z,17.67
2018-05-10T04:07:26.914Z,17.68
2018-05-10T04:10:06.260Z,17.69
2018-05-10T04:12:33.716Z,17.70
2018-05-10T04:15:01.225Z,17.66
2018-05-10T04:17:28.726Z,17.60
2018-05-10T04:19:56.221Z,17.59
2018-05-10T04:22:23.699Z,17.60
2018-05-10T04:24:51.238Z,17.58
2018-05-10T04:27:18.700Z,17.59
2018-05-10T04:29:46.189Z,17.61
2018-05-10T04:32:13.709Z,17.63
2018-05-10T04:34:41.223Z,17.66
2018-05-10T04:37:08.732Z,17.72
2018-05-10T04:39:36.206Z,17.75
2018-05-10T04:42:03.797Z,17.75
2018-05-10T04:44:31.327Z,17.81
2018-05-10T04:46:58.809Z,17.84
2018-05-10T04:49:26.291Z,17.88
2018-05-10T04:51:53.794Z,17.90
2018-05-10T04:54:21.265Z,17.89
2018-05-10T04:56:48.737Z,17.90
2018-05-10T04:59:16.184Z,17.91
2018-05-10T05:01:43.684Z,17.93
2018-05-10T05:04:11.176Z,17.90
2018-05-10T05:06:38.760Z,17.94
2018-05-10T05:09:06.284Z,17.87
2018-05-10T05:11:33.733Z,17.93
2018-05-10T05:14:01.225Z,17.95
2018-05-10T05:16:28.752Z,17.98
2018-05-10T05:18:56.204Z,18.06
2018-05-10T05:21:23.825Z,18.11
2018-05-10T05:23:51.263Z,18.10
2018-05-10T05:26:18.785Z,18.18
2018-05-10T05:28:46.261Z,18.25
2018-05-10T05:31:13.850Z,18.30
2018-05-10T05:33:41.355Z,18.43
2018-05-10T05:36:08.809Z,18.56
2018-05-10T05:38:36.324Z,18.73
2018-05-10T05:41:03.817Z,18.91
2018-05-10T05:43:31.331Z,19.06
2018-05-10T05:45:58.902Z,19.06
2018-05-10T05:48:26.373Z,19.07
2018-05-10T05:50:53.857Z,19.19
2018-05-10T05:53:21.371Z,19.19
2018-05-10T05:55:48.876Z,19.20
2018-05-10T05:58:16.333Z,19.16
2018-05-10T06:00:43.840Z,19.18
2018-05-10T06:03:11.315Z,19.22
2018-05-10T06:05:38.799Z,19.16
2018-05-10T06:08:06.261Z,19.12
2018-05-10T06:10:33.750Z,19.20
2018-05-10T06:13:01.261Z,19.30
2018-05-10T06:15:28.775Z,19.28
2018-05-10T06:17:56.313Z,19.24
2018-05-10T06:20:23.899Z,19.09
2018-05-10T06:22:51.376Z,19.09
2018-05-10T06:25:18.886Z,19.23
2018-05-10T06:27:46.377Z,19.39
2018-05-10T06:30:13.843Z,19.42
2018-05-10T06:32:41.377Z,19.43
2018-05-10T06:35:08.955Z,19.62
2018-05-10T06:37:36.440Z,19.58
2018-05-10T06:40:03.972Z,19.61
2018-05-10T06:42:31.489Z,19.57
2018-05-10T06:44:58.956Z,19.61
2018-05-10T06:47:26.444Z,19.61
2018-05-10T06:49:54.175Z,19.68
2018-05-10T06:52:21.735Z,19.78
2018-05-10T06:54:49.291Z,19.93
2018-05-10T06:57:16.780Z,20.14
2018-05-10T06:59:44.249Z,20.15
2018-05-10T07:02:11.715Z,20.41
2018-05-10T07:04:39.172Z,20.42
2018-05-10T07:07:06.690Z,20.48
2018-05-10T07:09:34.251Z,20.56
2018-05-10T07:12:01.731Z,20.62
2018-05-10T07:14:29.231Z,20.72
2018-05-10T07:16:56.712Z,20.87
2018-05-10T07:19:24.182Z,21.04
2018-05-10T07:21:51.681Z,21.06
2018-05-10T07:24:19.151Z,21.26
2018-05-10T07:26:46.632Z,21.46
2018-05-10T07:29:14.392Z,21.51
2018-05-10T07:31:41.859Z,21.75
2018-05-10T07:34:09.322Z,22.21
2018-05-10T07:36:36.834Z,22.81
2018-05-10T07:39:04.305Z,23.06
2018-05-10T07:41:31.795Z,23.27
2018-05-10T07:43:59.257Z,22.78
2018-05-10T07:46:26.716Z,22.51
2018-05-10T07:48:54.192Z,22.54
2018-05-10T07:51:21.656Z,22.59
2018-05-10T07:53:49.222Z,22.70
2018-05-10T07:56:16.687Z,22.79
2018-05-10T07:58:44.156Z,22.92
2018-05-10T08:01:11.641Z,23.15
2018-05-10T08:03:39.113Z,23.28
2018-05-10T08:06:06.596Z,23.29
2018-05-10T08:08:34.088Z,23.41
2018-05-10T08:11:01.591Z,23.43
2018-05-10T08:13:29.145Z,23.49
2018-05-10T08:15:56.745Z,23.61
2018-05-10T08:18:24.276Z,23.76
2018-05-10T08:20:51.773Z,23.76
2018-05-10T08:23:19.272Z,23.81
2018-05-10T08:25:46.798Z,23.81
2018-05-10T08:28:14.357Z,23.41
2018-05-10T08:30:41.872Z,23.33
2018-05-10T08:33:09.340Z,23.49
2018-05-10T08:35:36.850Z,23.65
2018-05-10T08:38:04.369Z,24.01
2018-05-10T08:40:31.940Z,24.32
2018-05-10T08:42:59.443Z,24.52
2018-05-10T08:48:00.749Z,24.56
2018-05-10T08:50:28.271Z,24.55
2018-05-10T08:52:55.767Z,24.44
2018-05-10T08:55:23.226Z,24.49
2018-05-10T08:57:50.720Z,24.56
2018-05-10T09:00:18.206Z,24.24
2018-05-10T09:02:45.691Z,24.24
2018-05-10T09:05:13.228Z,24.47
2018-05-10T09:07:40.690Z,24.70
2018-05-10T09:10:08.193Z,24.92
2018-05-10T09:12:35.710Z,24.96
2018-05-10T09:15:03.274Z,24.74
2018-05-10T09:17:30.856Z,24.82
2018-05-10T09:19:58.379Z,24.96
2018-05-10T09:22:25.866Z,24.98
2018-05-10T09:24:53.348Z,25.04
2018-05-10T09:27:20.831Z,25.14
2018-05-10T09:29:48.297Z,25.11
2018-05-10T09:32:16.588Z,25.16
2018-05-10T09:34:44.518Z,25.21
2018-05-10T09:37:12.200Z,25.18
2018-05-10T09:39:39.828Z,24.98
2018-05-10T09:42:07.293Z,24.93
2018-05-10T09:44:34.943Z,25.02
2018-05-10T09:47:02.405Z,25.18
2018-05-10T09:49:29.900Z,25.36
2018-05-10T09:51:57.372Z,25.37
2018-05-10T09:54:24.968Z,25.44
2018-05-10T09:56:52.518Z,25.40
2018-05-10T09:59:19.976Z,25.45
2018-05-10T10:01:47.672Z,25.59
2018-05-10T10:04:15.197Z,25.69
2018-05-10T10:06:42.749Z,25.63
2018-05-10T10:09:10.264Z,25.60
2018-05-10T10:11:37.756Z,25.67
2018-05-10T10:14:05.320Z,25.48
2018-05-10T10:16:32.793Z,25.63
2018-05-10T10:19:00.368Z,25.57
2018-05-10T10:21:27.869Z,25.63
2018-05-10T10:23:55.421Z,25.83
2018-05-10T10:26:22.896Z,25.97
2018-05-10T10:28:50.355Z,26.02
2018-05-10T10:31:17.838Z,26.06
2018-05-10T10:33:45.376Z,26.12
2018-05-10T10:36:12.969Z,26.29
2018-05-10T10:38:40.485Z,26.19
2018-05-10T10:41:07.977Z,25.97
2018-05-10T10:43:35.472Z,26.07
2018-05-10T10:46:02.987Z,26.25
2018-05-10T10:48:30.496Z,26.36
2018-05-10T10:50:58.093Z,26.43
2018-05-10T10:53:25.547Z,26.46
2018-05-10T10:55:53.026Z,26.36
2018-05-10T10:58:20.534Z,26.58
2018-05-10T11:00:48.022Z,26.53
2018-05-10T11:03:15.500Z,26.59
2018-05-10T11:05:42.951Z,26.63
2018-05-10T11:08:10.400Z,26.65
2018-05-10T11:10:37.875Z,26.74
2018-05-10T11:13:05.368Z,26.72
2018-05-10T11:15:32.863Z,26.59
2018-05-10T11:18:00.350Z,26.54
2018-05-10T11:20:27.846Z,26.43
2018-05-10T11:22:55.344Z,26.45
2018-05-10T11:25:22.883Z,26.67
2018-05-10T11:27:50.333Z,26.89
2018-05-10T11:30:17.901Z,27.15
2018-05-10T11:32:45.413Z,27.08
2018-05-10T11:35:12.901Z,27.16
2018-05-10T11:37:40.418Z,27.29
2018-05-10T11:40:07.907Z,27.24
2018-05-10T11:42:35.548Z,27.33
2018-05-10T11:45:03.219Z,27.64
2018-05-10T11:47:30.762Z,27.75
2018-05-10T11:49:58.311Z,27.82
2018-05-10T11:52:25.826Z,27.83
2018-05-10T11:54:53.281Z,27.97
2018-05-10T11:57:21.001Z,27.82
2018-05-10T11:59:48.401Z,27.78
2018-05-10T12:02:15.880Z,27.65
2018-05-10T12:04:43.340Z,27.35
2018-05-10T12:07:10.841Z,27.39
2018-05-10T12:09:38.296Z,27.33
2018-05-10T12:12:05.852Z,27.45
2018-05-10T12:14:33.353Z,27.65
2018-05-10T12:17:00.871Z,27.62
2018-05-10T12:19:28.386Z,27.34
2018-05-10T12:21:55.856Z,27.30
2018-05-10T12:24:23.353Z,27.30
2018-05-10T12:26:50.895Z,27.32
2018-05-10T12:29:18.360Z,27.43
2018-05-10T12:31:45.845Z,27.76
2018-05-10T12:34:13.398Z,27.66
2018-05-10T12:36:40.913Z,27.78
2018-05-10T12:39:08.388Z,27.81
2018-05-10T12:41:36.002Z,28.05
2018-05-10T12:44:03.443Z,27.76
2018-05-10T12:46:30.926Z,27.62
2018-05-10T12:48:58.420Z,27.58
2018-05-10T12:51:25.892Z,27.74
2018-05-10T12:53:53.399Z,27.92
2018-05-10T12:56:20.911Z,27.93
2018-05-10T12:58:48.453Z,27.84
2018-05-10T13:01:15.933Z,27.98
2018-05-10T13:03:43.468Z,28.06
2018-05-10T13:06:10.942Z,28.20
2018-05-10T13:08:38.423Z,28.21
2018-05-10T13:11:05.901Z,28.09
2018-05-10T13:13:33.350Z,27.68
2018-05-10T13:16:00.946Z,27.59
2018-05-10T13:18:28.429Z,27.48
2018-05-10T13:20:56.044Z,27.75
2018-05-10T13:23:23.551Z,28.02
2018-05-10T13:25:51.018Z,28.23
2018-05-10T13:28:18.530Z,28.29
2018-05-10T13:30:46.024Z,28.35
2018-05-10T13:33:13.569Z,28.30
2018-05-10T13:35:41.076Z,28.39
2018-05-10T13:38:08.579Z,28.26
2018-05-10T13:40:36.042Z,28.35
2018-05-10T13:43:03.575Z,28.38
2018-05-10T13:45:31.069Z,28.26
2018-05-10T13:47:58.578Z,28.28
2018-05-10T13:50:26.070Z,28.32
2018-05-10T13:52:53.566Z,28.18
2018-05-10T13:55:21.043Z,28.26
2018-05-10T13:57:48.546Z,28.33
2018-05-10T14:00:16.072Z,28.37
2018-05-10T14:02:43.564Z,28.38
2018-05-10T14:05:11.027Z,28.19
2018-05-10T14:07:38.582Z,28.19
2018-05-10T14:10:06.055Z,28.07
2018-05-10T14:12:33.539Z,28.17
2018-05-10T14:15:01.150Z,28.22
2018-05-10T14:17:28.721Z,28.20
2018-05-10T14:19:56.192Z,28.29
2018-05-10T14:22:23.676Z,28.25
2018-05-10T14:24:51.180Z,28.32
2018-05-10T14:27:18.668Z,28.36
2018-05-10T14:29:46.198Z,28.40
2018-05-10T14:34:47.503Z,28.59
2018-05-10T14:37:15.080Z,28.63
2018-05-10T14:39:42.565Z,28.84
2018-05-10T14:42:10.058Z,28.91
2018-05-10T14:44:37.621Z,29.06
2018-05-10T14:47:05.139Z,29.17
2018-05-10T14:49:32.619Z,29.27
2018-05-10T14:52:00.178Z,29.51
2018-05-10T14:54:27.670Z,29.41
2018-05-10T14:56:55.182Z,29.33
2018-05-10T14:59:22.670Z,29.25
2018-05-10T15:01:50.199Z,29.32
2018-05-10T15:04:17.668Z,29.35
2018-05-10T15:06:45.127Z,29.56
2018-05-10T15:09:12.650Z,30.80
2018-05-10T15:11:40.149Z,31.71
2018-05-10T15:14:07.636Z,33.04
2018-05-10T15:16:35.134Z,33.50
2018-05-10T15:19:02.673Z,33.77
2018-05-10T15:21:30.162Z,34.48
2018-05-10T15:23:57.663Z,33.87
2018-05-10T15:26:25.200Z,34.23
2018-05-10T15:28:52.689Z,33.33
2018-05-10T15:31:20.148Z,31.86
2018-05-10T15:33:47.652Z,30.23
2018-05-10T15:36:15.218Z,28.70
2018-05-10T15:38:42.771Z,27.96
2018-05-10T15:41:10.241Z,27.57
2018-05-10T15:43:37.749Z,27.32
2018-05-10T15:46:05.328Z,27.07
2018-05-10T15:48:34.470Z,26.78
2018-05-10T15:51:02.135Z,26.70
2018-05-10T15:53:29.621Z,26.61
2018-05-10T15:55:57.189Z,26.45
2018-05-10T15:58:24.713Z,26.39
2018-05-10T16:00:52.237Z,26.34
2018-05-10T16:03:19.768Z,26.29
2018-05-10T16:05:47.289Z,26.21
2018-05-10T16:08:14.757Z,26.13
2018-05-10T16:10:42.240Z,26.07
2018-05-10T16:13:09.738Z,26.03
2018-05-10T16:15:37.207Z,26.01
2018-05-10T16:18:04.843Z,25.98
2018-05-10T16:20:32.373Z,25.96
2018-05-10T16:22:59.905Z,25.88
2018-05-10T16:25:27.442Z,25.83
2018-05-10T16:27:54.976Z,25.75
2018-05-10T16:30:22.472Z,25.73
2018-05-10T16:32:50.085Z,25.74
2018-05-10T16:35:17.607Z,25.72
2018-05-10T16:37:45.065Z,25.57
2018-05-10T16:40:12.570Z,25.41
2018-05-10T16:42:40.032Z,25.14
2018-05-10T16:45:07.556Z,25.05
2018-05-10T16:47:35.016Z,24.89
2018-05-10T16:50:02.517Z,24.77
2018-05-10T16:52:30.043Z,24.81
2018-05-10T16:54:57.631Z,24.90
2018-05-10T16:57:25.138Z,24.97
2018-05-10T16:59:52.613Z,24.91
2018-05-10T17:02:20.075Z,24.86
2018-05-10T17:04:47.588Z,24.90
2018-05-10T17:07:15.091Z,24.84
2018-05-10T17:09:42.662Z,24.75
2018-05-10T17:12:10.246Z,24.57
2018-05-10T17:14:37.775Z,24.35
2018-05-10T17:17:05.288Z,24.20
2018-05-10T17:19:32.809Z,23.99
2018-05-10T17:22:00.311Z,23.56
2018-05-10T17:24:27.779Z,23.16
2018-05-10T17:26:55.255Z,22.56
2018-05-10T17:29:22.704Z,21.12
2018-05-10T17:31:50.181Z,19.28
2018-05-10T17:34:17.969Z,18.23
2018-05-10T17:36:45.437Z,17.82
2018-05-10T17:39:12.935Z,17.71
2018-05-10T17:41:40.465Z,17.75
2018-05-10T17:44:07.938Z,17.88
2018-05-10T17:46:35.425Z,18.09
2018-05-10T17:49:02.890Z,18.28
2018-05-10T17:51:30.383Z,18.54
2018-05-10T17:53:57.875Z,18.61
2018-05-10T17:56:25.447Z,18.76
2018-05-10T17:58:53.161Z,18.89
2018-05-10T18:01:20.696Z,18.97
2018-05-10T18:03:48.188Z,19.04
2018-05-10T18:06:15.639Z,19.06
2018-05-10T18:08:43.226Z,18.98
2018-05-10T18:11:10.685Z,18.91
2018-05-10T18:13:38.253Z,18.84
2018-05-10T18:16:05.773Z,18.81
2018-05-10T18:18:33.408Z,18.79
2018-05-10T18:21:00.966Z,18.86
2018-05-10T18:23:28.517Z,18.90
2018-05-10T18:25:56.014Z,18.94
2018-05-10T18:28:23.525Z,18.91
2018-05-10T18:30:51.017Z,18.81
2018-05-10T18:33:18.606Z,18.59
2018-05-10T18:35:46.066Z,18.42
2018-05-10T18:38:13.533Z,18.21
2018-05-10T18:40:41.016Z,18.04
2018-05-10T18:43:08.544Z,17.98
2018-05-10T18:45:36.029Z,17.93
2018-05-10T18:48:03.639Z,17.92
2018-05-10T18:50:31.139Z,17.99
2018-05-10T18:52:58.643Z,18.06
2018-05-10T18:55:26.147Z,18.11
2018-05-10T18:57:53.676Z,18.12
2018-05-10T19:00:21.168Z,18.14
2018-05-10T19:02:48.621Z,18.17
2018-05-10T19:05:16.075Z,18.26
2018-05-10T19:07:43.652Z,18.32
2018-05-10T19:10:11.136Z,18.27
2018-05-10T19:12:38.636Z,18.32
2018-05-10T19:15:06.131Z,18.25
2018-05-10T19:17:33.596Z,18.25
2018-05-10T19:20:01.196Z,18.21
2018-05-10T19:22:28.759Z,18.16
2018-05-10T19:24:56.265Z,18.11
2018-05-10T19:27:23.744Z,18.03
2018-05-10T19:29:51.278Z,17.98
2018-05-10T19:32:18.839Z,17.96
2018-05-10T19:34:46.450Z,17.96
2018-05-10T19:37:13.988Z,17.99
2018-05-10T19:39:41.545Z,18.05
2018-05-10T19:42:09.033Z,18.04
2018-05-10T19:44:36.495Z,18.06
2018-05-10T19:47:03.952Z,18.05
2018-05-10T19:49:31.461Z,18.06
2018-05-10T19:51:58.987Z,18.12
2018-05-10T19:54:26.470Z,18.11
2018-05-10T19:56:54.030Z,18.10
2018-05-10T19:59:21.494Z,18.10
2018-05-10T20:01:48.939Z,18.12
2018-05-10T20:04:16.415Z,18.23
2018-05-10T20:06:43.965Z,18.26
2018-05-10T20:09:11.435Z,18.24
2018-05-10T20:11:38.912Z,18.15
2018-05-10T20:14:06.415Z,18.14
2018-05-10T20:16:34.361Z,18.13
2018-05-10T20:19:01.939Z,18.12
2018-05-10T20:21:29.457Z,18.16
2018-05-10T20:23:57.114Z,18.27
2018-05-10T20:26:24.735Z,18.31
2018-05-10T20:28:52.200Z,18.29
2018-05-10T20:31:19.925Z,18.23
2018-05-10T20:33:47.446Z,18.22
2018-05-10T20:36:14.941Z,18.27
2018-05-10T20:38:42.410Z,18.32
2018-05-10T20:41:09.895Z,18.31
2018-05-10T20:43:37.417Z,18.32
2018-05-10T20:46:04.925Z,18.39
2018-05-10T20:48:32.509Z,18.36
2018-05-10T20:51:00.065Z,18.32
2018-05-10T20:53:27.583Z,18.33
2018-05-10T20:55:55.175Z,18.35
2018-05-10T20:58:22.645Z,18.37
2018-05-10T21:00:50.081Z,18.35
2018-05-10T21:03:17.597Z,18.32
2018-05-10T21:05:45.927Z,18.30
2018-05-10T21:08:13.394Z,18.19
2018-05-10T21:10:40.957Z,18.19
2018-05-10T21:13:08.433Z,18.04
2018-05-10T21:15:35.921Z,18.01
2018-05-10T21:18:03.420Z,17.95
2018-05-10T21:20:30.960Z,17.91
2018-05-10T21:22:58.420Z,17.86
2018-05-10T21:25:26.004Z,17.87
2018-05-10T21:27:53.475Z,17.80
2018-05-10T21:30:20.984Z,17.71
2018-05-10T21:32:48.472Z,17.70
2018-05-10T21:35:15.953Z,17.65
2018-05-10T21:37:43.432Z,17.66
2018-05-10T21:40:10.919Z,17.61
2018-05-10T21:42:38.445Z,17.57
2018-05-10T21:45:05.908Z,17.56
2018-05-10T21:47:33.377Z,17.58
2018-05-10T21:50:02.565Z,17.60
2018-05-10T21:52:30.104Z,17.60
2018-05-10T21:54:57.634Z,17.52
2018-05-10T21:57:25.202Z,17.45
2018-05-10T21:59:52.695Z,17.39
2018-05-10T22:02:22.793Z,17.34
2018-05-10T22:04:50.262Z,17.27
2018-05-10T22:07:17.792Z,17.20
2018-05-10T22:09:45.288Z,17.13
2018-05-10T22:12:12.916Z,17.05
2018-05-10T22:14:40.365Z,16.95
2018-05-10T22:17:07.930Z,16.89
2018-05-10T22:19:35.425Z,16.89
2018-05-10T22:22:02.912Z,16.92
2018-05-10T22:24:30.389Z,16.90
2018-05-10T22:26:57.929Z,16.90
2018-05-10T22:29:25.433Z,16.83
2018-05-10T22:31:52.918Z,16.73
2018-05-10T22:34:20.450Z,16.63
2018-05-10T22:36:47.985Z,16.65
2018-05-10T22:39:15.473Z,16.67
2018-05-10T22:41:43.117Z,16.70
2018-05-10T22:44:10.598Z,16.67
2018-05-10T22:46:38.060Z,16.65
2018-05-10T22:49:05.549Z,16.63
2018-05-10T22:51:33.141Z,16.63
2018-05-10T22:54:00.730Z,16.59
2018-05-10T22:56:28.262Z,16.59
2018-05-10T22:58:55.822Z,16.60
2018-05-10T23:01:23.306Z,16.49
2018-05-10T23:03:50.793Z,16.38
2018-05-10T23:06:18.369Z,16.31
2018-05-10T23:08:45.829Z,16.28
2018-05-10T23:11:13.328Z,16.21
2018-05-10T23:13:40.824Z,16.23
2018-05-10T23:16:08.329Z,16.18
2018-05-10T23:18:35.859Z,16.14
2018-05-10T23:21:03.332Z,16.09
2018-05-10T23:23:30.809Z,16.08
2018-05-10T23:25:58.275Z,16.12
2018-05-10T23:28:25.779Z,16.08
2018-05-10T23:30:53.237Z,16.05
2018-05-10T23:35:54.704Z,15.92
2018-05-10T23:38:22.292Z,15.89
2018-05-10T23:40:49.855Z,15.89
2018-05-10T23:43:17.362Z,15.89
2018-05-10T23:45:44.824Z,15.85
2018-05-10T23:48:12.283Z,15.86
2018-05-10T23:50:39.813Z,15.80
2018-05-10T23:53:07.332Z,15.77
2018-05-10T23:55:34.901Z,15.74
2018-05-10T23:58:02.393Z,15.69
